Flight Track Log - Related Links

Times and Time Zones

All times are in EDT time to prevent confusion due to time zone crossing. See the UAL780 flight status page for this flight to view local times or setup timezone preferences in your user account.


Time Position Orientation Groundspeed Altitude Reporting Facility
EDT Latitude Longitude Course Direction KTS MPH feet Rate Location/Type
Wed 09:40:18 PM 47.3642 -122.3103 179° South 208 239 3,600  Level Seattle Center
Wed 09:41:15 PM 47.3019 -122.3083 179° South 241 277 6,500 3,203 Climbing Seattle Center
Wed 09:42:00 PM 47.0232 -122.3150 166° South  Level Estimated
Wed 09:42:16 PM 47.2242 -122.3056 179° South 276 318 9,900  Level Seattle Center
Wed 09:43:00 PM 46.9165 -122.3158 146° Southeast  Level Estimated
Wed 09:43:17 PM 47.1456 -122.2303 147° Southeast 315 362 12,300  Level Seattle Center
Wed 09:44:00 PM 46.8098 -122.3166 199° South  Level Estimated
Wed 09:44:18 PM 47.0578 -122.1547 150° Southeast 365 420 14,800  Level Seattle Center
Wed 09:45:18 PM 46.9539 -122.1203 167° South 382 440 17,400 2,182 Climbing Seattle Center
Wed 09:46:19 PM 46.8528 -122.1178 179° South 392 451 19,200 1,918 Climbing Seattle Center
Wed 09:47:20 PM 46.7375 -122.1211 181° South 409 471 21,300 2,016 Climbing Seattle Center
Wed 09:48:21 PM 46.6175 -122.1236 181° South 427 491 23,300 1,967 Climbing Seattle Center
Wed 09:49:22 PM 46.4961 -122.1231 180° South 436 502 25,300 1,721 Climbing Seattle Center
Wed 09:50:23 PM 46.3733 -122.1256 181° South 441 507 26,800 1,426 Climbing Seattle Center
Wed 09:51:24 PM 46.2447 -122.1128 176° South 461 531 28,200 1,328 Climbing Seattle Center
Wed 09:52:25 PM 46.1117 -122.0997 176° South 480 552 29,500 1,377 Climbing Seattle Center
Wed 09:53:26 PM 45.9517 -122.0839 176° South 482 555 31,000 1,475 Climbing Seattle Center
Wed 09:54:27 PM 45.8161 -122.0697 176° South 489 563 32,500 1,279 Climbing Seattle Center
Wed 09:55:28 PM 45.6817 -122.0567 176° South 485 558 33,600 1,082 Climbing Seattle Center
Wed 09:56:29 PM 45.5442 -122.0431 176° South 492 566 34,700 1,033 Climbing Seattle Center
Wed 09:57:30 PM 45.4064 -122.0297 176° South 496 571 35,700 934 Climbing Seattle Center
Wed 09:58:31 PM 45.2683 -122.0156 176° South 497 572 36,600 639 Climbing Seattle Center
Wed 09:59:32 PM 45.1281 -122.0019 176° South 502 578 37,000 197 Climbing Seattle Center
Wed 10:00:33 PM 44.9881 -121.9875 176° South 501 577 37,000  Level Seattle Center
Wed 10:01:34 PM 44.8406 -121.9733 176° South 497 572 37,000  Level Seattle Center
Wed 10:02:35 PM 44.7036 -121.9606 176° South 493 567 37,000  Level Seattle Center
Wed 10:03:36 PM 44.5642 -121.9469 176° South 496 571 37,000  Level Seattle Center
Wed 10:04:36 PM 44.4258 -121.9328 176° South 496 571 37,000  Level Seattle Center
Wed 10:05:37 PM 44.2872 -121.9197 176° South 497 572 37,000  Level Seattle Center
Wed 10:06:38 PM 44.1492 -121.9067 176° South 497 572 37,000  Level Seattle Center
Wed 10:07:39 PM 44.0108 -121.8944 176° South 496 571 37,000  Level Seattle Center
Wed 10:08:40 PM 43.8725 -121.8808 176° South 496 571 37,000  Level Seattle Center
Wed 10:09:41 PM 43.7311 -121.8689 177° South 499 574 37,000  Level Seattle Center
Wed 10:10:42 PM 43.5936 -121.8561 176° South 497 572 37,000  Level Seattle Center
Wed 10:11:43 PM 43.4556 -121.8428 176° South 497 572 37,000  Level Seattle Center
Wed 10:12:44 PM 43.3183 -121.8311 176° South 496 571 37,000  Level Seattle Center
Wed 10:13:45 PM 43.1819 -121.8183 176° South 492 566 37,000  Level Seattle Center
Wed 10:14:46 PM 43.0178 -121.8025 176° South 492 566 37,000  Level Seattle Center
Wed 10:15:47 PM 42.8819 -121.7908 176° South 490 564 37,000  Level Seattle Center
Wed 10:16:49 PM 42.7481 -121.7786 176° South 485 558 37,000  Level Seattle Center
Wed 10:17:50 PM 42.6136 -121.7661 176° South 485 558 37,000  Level Seattle Center
Wed 10:18:51 PM 42.4789 -121.7550 177° South 484 557 37,000  Level Seattle Center
Wed 10:19:52 PM 42.3444 -121.7439 177° South 484 557 37,000  Level Seattle Center
Wed 10:20:53 PM 42.2089 -121.7328 177° South 482 555 37,000 49 Level Seattle Center
Wed 10:21:54 PM 42.0753 -121.7467 184° South 471 542 37,100 49 Climbing Seattle Center
Wed 10:22:55 PM 41.9431 -121.7803 191° South 471 542 37,100 -49 Level Seattle Center
Wed 10:23:56 PM 41.8133 -121.8144 191° South 468 539 37,000 -49 Descending Seattle Center
Wed 10:24:57 PM 41.6858 -121.8472 191° South 463 533 37,000  Level Seattle Center
Wed 10:25:58 PM 41.5592 -121.8833 192° South 464 534 37,000  Level Seattle Center
Wed 10:26:59 PM 41.4333 -121.9225 193° South 464 534 37,000  Level Seattle Center
Wed 10:27:42 PM 41.3419 -121.9492 192° South 464 534 37,000  Level Oakland Center
Wed 10:28:44 PM 41.2158 -121.9861 192° South 464 534 37,000  Level Oakland Center
Wed 10:29:45 PM 41.0889 -122.0239 193° South 466 536 37,000  Level Oakland Center
Wed 10:30:46 PM 40.9622 -122.0581 192° South 465 535 37,000  Level Oakland Center
Wed 10:31:47 PM 40.8119 -122.1025 193° South 462 532 37,000  Level Oakland Center
Wed 10:32:49 PM 40.6850 -122.1397 193° South 465 535 37,000  Level Oakland Center
Wed 10:33:50 PM 40.5592 -122.1761 192° South 463 533 37,000  Level Oakland Center
Wed 10:34:51 PM 40.4322 -122.2133 193° South 467 537 37,000  Level Oakland Center
Wed 10:35:52 PM 40.3061 -122.2492 192° South 465 535 37,000  Level Oakland Center
Wed 10:36:54 PM 40.1836 -122.2856 193° South 472 543 37,000  Level Oakland Center
Wed 10:37:55 PM 40.0364 -122.3275 192° South 472 543 37,000  Level Oakland Center
Wed 10:38:56 PM 39.9097 -122.3622 192° South 471 542 37,000  Level Oakland Center
Wed 10:39:57 PM 39.7836 -122.3981 192° South 467 537 37,000  Level Oakland Center
Wed 10:40:59 PM 39.6558 -122.4342 192° South 468 539 37,000  Level Oakland Center
Wed 10:42:00 PM 39.5308 -122.4703 193° South 464 534 37,000 -197 Level Oakland Center
Wed 10:43:01 PM 39.3997 -122.5058 192° South 462 532 36,600 -689 Descending Oakland Center
Wed 10:44:02 PM 39.2803 -122.5389 192° South 461 531 35,600 -984 Descending Oakland Center
Wed 10:45:03 PM 39.1503 -122.5764 193° South 460 529 34,600 -1,463 Descending Oakland Center
Wed 10:46:05 PM 39.0239 -122.6106 192° South 463 533 32,600 -3,024 Descending Oakland Center
Wed 10:47:06 PM 38.8731 -122.6256 184° South 476 548 28,400 -3,295 Descending Oakland Center
Wed 10:48:07 PM 38.7431 -122.6314 182° South 471 542 25,900 -2,311 Descending Oakland Center
Wed 10:49:08 PM 38.6186 -122.6375 182° South 454 522 23,700 -2,115 Descending Oakland Center
Wed 10:50:09 PM 38.5011 -122.6433 182° South 433 498 21,600 -2,066 Descending Oakland Center
Wed 10:51:10 PM 38.3883 -122.6492 182° South 413 475 19,500 -2,098 Descending Oakland Center
Wed 10:52:12 PM 38.2778 -122.6542 182° South 397 457 17,300 -2,049 Descending Oakland Center
Wed 10:53:13 PM 38.1736 -122.6594 182° South 384 442 15,300 -1,967 Descending Oakland Center
Wed 10:54:14 PM 38.0722 -122.6639 182° South 373 429 13,300 -1,967 Descending Oakland Center
Wed 10:55:15 PM 37.9583 -122.6706 183° South 353 406 11,300 -1,180 Descending Oakland Center
Wed 10:56:16 PM 37.8797 -122.6497 168° South 311 358 10,900 -195 Descending Oakland Center
Wed 10:57:18 PM 37.8167 -122.5842 141° Southeast 301 346 10,900  Level Oakland Center
Wed 10:58:19 PM 37.7600 -122.5236 140° Southeast 272 313 10,900  Level Oakland Center
Wed 10:59:20 PM 37.7228 -122.4489 122° Southeast 262 302 10,900 -344 Level Oakland Center
Wed 11:00:21 PM 37.6908 -122.3694 117° Southeast 256 295 10,200 -787 Descending Oakland Center
Wed 11:01:22 PM 37.6542 -122.2783 117° Southeast 245 282 9,300 -1,082 Descending Oakland Center
Wed 11:02:23 PM 37.6289 -122.2122 116° Southeast 219 252 8,000 -1,171 Descending Oakland Center
Wed 11:03:25 PM 37.5997 -122.1492 120° Southeast 210 242 6,900 -1,220 Descending Oakland Center
Wed 11:04:26 PM 37.5556 -122.1153 149° Southeast 214 246 5,500 -1,426 Descending Oakland Center
Wed 11:05:27 PM 37.5283 -122.1625 234° Southwest 209 241 4,000 -1,328 Descending Oakland Center
Wed 11:06:28 PM 37.5536 -122.2108 303° West 175 201 2,800 -1,180 Descending Oakland Center
Wed 11:07:29 PM 37.5753 -122.2633 298° West 171 197 1,600 -934 Descending Oakland Center
Wed 11:08:30 PM 37.5936 -122.3106 296° West 163 188 900 -689 Descending Oakland Center
Wed 11:09:31 PM 37.6097 -122.3500 297° West 145 167 200 -689 Descending Oakland Center

Login

Don't have an account? Register now (free) for customized features, flight alerts, and more!